sensor_id;sensor_type;location;lat;lon;timestamp;temperature;humidity
18291;DHT22;9271;48.590;8.866;2024-02-23T00:00:23;6.30;99.90
18291;DHT22;9271;48.590;8.866;2024-02-23T00:02:50;6.40;99.90
18291;DHT22;9271;48.590;8.866;2024-02-23T00:05:18;6.50;99.90
18291;DHT22;9271;48.590;8.866;2024-02-23T00:07:45;6.40;99.90
18291;DHT22;9271;48.590;8.866;2024-02-23T00:10:12;6.30;99.90
18291;DHT22;9271;48.590;8.866;2024-02-23T00:12:39;6.60;99.90
18291;DHT22;9271;48.590;8.866;2024-02-23T00:15:07;6.70;99.90
18291;DHT22;9271;48.590;8.866;2024-02-23T00:17:33;6.70;99.90
18291;DHT22;9271;48.590;8.866;2024-02-23T00:20:00;6.50;99.90
18291;DHT22;9271;48.590;8.866;2024-02-23T00:22:28;6.20;99.90
18291;DHT22;9271;48.590;8.866;2024-02-23T00:24:55;6.20;99.90
18291;DHT22;9271;48.590;8.866;2024-02-23T00:27:21;6.30;99.90
18291;DHT22;9271;48.590;8.866;2024-02-23T00:29:48;6.30;99.90
18291;DHT22;9271;48.590;8.866;2024-02-23T00:32:14;6.50;99.90
18291;DHT22;9271;48.590;8.866;2024-02-23T00:34:41;6.30;99.90
18291;DHT22;9271;48.590;8.866;2024-02-23T00:37:08;6.30;99.90
18291;DHT22;9271;48.590;8.866;2024-02-23T00:39:36;6.20;99.90
18291;DHT22;9271;48.590;8.866;2024-02-23T00:42:03;6.10;99.90
18291;DHT22;9271;48.590;8.866;2024-02-23T00:44:30;6.30;99.90
18291;DHT22;9271;48.590;8.866;2024-02-23T00:46:56;6.50;99.90
18291;DHT22;9271;48.590;8.866;2024-02-23T00:49:23;6.40;99.90
18291;DHT22;9271;48.590;8.866;2024-02-23T00:51:50;6.40;99.90
18291;DHT22;9271;48.590;8.866;2024-02-23T00:54:17;6.40;99.90
18291;DHT22;9271;48.590;8.866;2024-02-23T00:56:45;6.30;99.90
18291;DHT22;9271;48.590;8.866;2024-02-23T00:59:11;6.40;99.90
18291;DHT22;9271;48.590;8.866;2024-02-23T01:01:38;6.30;99.90
18291;DHT22;9271;48.590;8.866;2024-02-23T01:04:05;6.40;99.90
18291;DHT22;9271;48.590;8.866;2024-02-23T01:06:31;6.40;99.90
18291;DHT22;9271;48.590;8.866;2024-02-23T01:08:58;6.50;99.90
18291;DHT22;9271;48.590;8.866;2024-02-23T01:11:25;6.50;99.90
18291;DHT22;9271;48.590;8.866;2024-02-23T01:13:53;6.40;99.90
18291;DHT22;9271;48.590;8.866;2024-02-23T01:16:19;6.60;99.90
18291;DHT22;9271;48.590;8.866;2024-02-23T01:18:46;6.60;99.90
18291;DHT22;9271;48.590;8.866;2024-02-23T01:21:13;6.40;99.90
18291;DHT22;9271;48.590;8.866;2024-02-23T01:23:40;6.40;99.90
18291;DHT22;9271;48.590;8.866;2024-02-23T01:26:06;6.40;99.90
18291;DHT22;9271;48.590;8.866;2024-02-23T01:28:33;6.30;99.90
18291;DHT22;9271;48.590;8.866;2024-02-23T01:31:01;6.50;99.90
18291;DHT22;9271;48.590;8.866;2024-02-23T01:33:29;6.70;99.90
18291;DHT22;9271;48.590;8.866;2024-02-23T01:35:56;6.60;99.90
18291;DHT22;9271;48.590;8.866;2024-02-23T01:38:23;6.30;99.90
18291;DHT22;9271;48.590;8.866;2024-02-23T01:40:50;6.50;99.90
18291;DHT22;9271;48.590;8.866;2024-02-23T01:43:17;6.80;99.90
18291;DHT22;9271;48.590;8.866;2024-02-23T01:45:43;6.70;99.90
18291;DHT22;9271;48.590;8.866;2024-02-23T01:48:11;6.70;99.90
18291;DHT22;9271;48.590;8.866;2024-02-23T01:50:38;6.60;99.90
18291;DHT22;9271;48.590;8.866;2024-02-23T01:53:05;6.80;99.90
18291;DHT22;9271;48.590;8.866;2024-02-23T01:55:33;6.80;99.90
18291;DHT22;9271;48.590;8.866;2024-02-23T01:58:00;6.80;99.90
18291;DHT22;9271;48.590;8.866;2024-02-23T02:00:28;6.90;99.90
18291;DHT22;9271;48.590;8.866;2024-02-23T02:02:56;7.00;99.90
18291;DHT22;9271;48.590;8.866;2024-02-23T02:05:24;6.70;99.90
18291;DHT22;9271;48.590;8.866;2024-02-23T02:07:53;6.60;99.90
18291;DHT22;9271;48.590;8.866;2024-02-23T02:10:24;6.80;99.90
18291;DHT22;9271;48.590;8.866;2024-02-23T02:12:51;6.90;99.90
18291;DHT22;9271;48.590;8.866;2024-02-23T02:15:18;6.80;99.90
18291;DHT22;9271;48.590;8.866;2024-02-23T02:17:47;6.60;99.90
18291;DHT22;9271;48.590;8.866;2024-02-23T02:20:13;6.30;99.90
18291;DHT22;9271;48.590;8.866;2024-02-23T02:22:41;6.40;99.90
18291;DHT22;9271;48.590;8.866;2024-02-23T02:25:08;6.50;99.90
18291;DHT22;9271;48.590;8.866;2024-02-23T02:27:35;6.30;99.90
18291;DHT22;9271;48.590;8.866;2024-02-23T02:30:03;6.40;99.90
18291;DHT22;9271;48.590;8.866;2024-02-23T02:32:29;6.30;99.90
18291;DHT22;9271;48.590;8.866;2024-02-23T02:34:56;6.30;99.90
18291;DHT22;9271;48.590;8.866;2024-02-23T02:37:23;6.30;99.90
18291;DHT22;9271;48.590;8.866;2024-02-23T02:39:51;6.20;99.90
18291;DHT22;9271;48.590;8.866;2024-02-23T02:42:17;6.20;99.90
18291;DHT22;9271;48.590;8.866;2024-02-23T02:44:44;6.10;99.90
18291;DHT22;9271;48.590;8.866;2024-02-23T02:47:10;6.10;99.90
18291;DHT22;9271;48.590;8.866;2024-02-23T02:49:39;6.30;99.90
18291;DHT22;9271;48.590;8.866;2024-02-23T02:52:06;6.40;99.90
18291;DHT22;9271;48.590;8.866;2024-02-23T02:54:34;6.40;99.90
18291;DHT22;9271;48.590;8.866;2024-02-23T02:57:02;6.20;99.90
18291;DHT22;9271;48.590;8.866;2024-02-23T02:59:28;6.20;99.90
18291;DHT22;9271;48.590;8.866;2024-02-23T03:01:57;6.20;99.90
18291;DHT22;9271;48.590;8.866;2024-02-23T03:04:23;6.20;99.90
18291;DHT22;9271;48.590;8.866;2024-02-23T03:06:50;6.10;99.90
18291;DHT22;9271;48.590;8.866;2024-02-23T03:09:25;6.20;99.90
18291;DHT22;9271;48.590;8.866;2024-02-23T03:11:52;6.20;99.90
18291;DHT22;9271;48.590;8.866;2024-02-23T03:14:20;6.00;99.90
18291;DHT22;9271;48.590;8.866;2024-02-23T03:16:48;6.00;99.90
18291;DHT22;9271;48.590;8.866;2024-02-23T03:19:15;6.00;99.90
18291;DHT22;9271;48.590;8.866;2024-02-23T03:21:42;6.20;99.90
18291;DHT22;9271;48.590;8.866;2024-02-23T03:24:08;6.20;99.90
18291;DHT22;9271;48.590;8.866;2024-02-23T03:26:35;6.20;99.90
18291;DHT22;9271;48.590;8.866;2024-02-23T03:29:02;6.20;99.90
18291;DHT22;9271;48.590;8.866;2024-02-23T03:31:30;6.10;99.90
18291;DHT22;9271;48.590;8.866;2024-02-23T03:33:56;5.90;99.90
18291;DHT22;9271;48.590;8.866;2024-02-23T03:36:23;5.90;99.90
18291;DHT22;9271;48.590;8.866;2024-02-23T03:38:49;6.00;99.90
18291;DHT22;9271;48.590;8.866;2024-02-23T03:41:16;6.00;99.90
18291;DHT22;9271;48.590;8.866;2024-02-23T03:43:43;5.90;99.90
18291;DHT22;9271;48.590;8.866;2024-02-23T03:46:09;6.20;99.90
18291;DHT22;9271;48.590;8.866;2024-02-23T03:48:38;6.50;99.90
18291;DHT22;9271;48.590;8.866;2024-02-23T03:51:05;6.30;99.90
18291;DHT22;9271;48.590;8.866;2024-02-23T03:53:32;6.40;99.90
18291;DHT22;9271;48.590;8.866;2024-02-23T03:55:58;6.30;99.90
18291;DHT22;9271;48.590;8.866;2024-02-23T03:58:25;6.40;99.90
18291;DHT22;9271;48.590;8.866;2024-02-23T04:00:52;6.30;99.90
18291;DHT22;9271;48.590;8.866;2024-02-23T04:03:18;6.10;99.90
18291;DHT22;9271;48.590;8.866;2024-02-23T04:05:46;6.00;99.90
18291;DHT22;9271;48.590;8.866;2024-02-23T04:08:13;6.00;99.90
18291;DHT22;9271;48.590;8.866;2024-02-23T04:10:40;5.90;99.90
18291;DHT22;9271;48.590;8.866;2024-02-23T04:13:06;5.80;99.90
18291;DHT22;9271;48.590;8.866;2024-02-23T04:15:33;5.70;99.90
18291;DHT22;9271;48.590;8.866;2024-02-23T04:18:00;5.90;99.90
18291;DHT22;9271;48.590;8.866;2024-02-23T04:20:27;6.00;99.90
18291;DHT22;9271;48.590;8.866;2024-02-23T04:22:54;5.90;99.90
18291;DHT22;9271;48.590;8.866;2024-02-23T04:25:21;5.90;99.90
18291;DHT22;9271;48.590;8.866;2024-02-23T04:27:48;6.00;99.90
18291;DHT22;9271;48.590;8.866;2024-02-23T04:30:14;6.30;99.90
18291;DHT22;9271;48.590;8.866;2024-02-23T04:32:44;6.60;99.90
18291;DHT22;9271;48.590;8.866;2024-02-23T04:35:11;6.40;99.90
18291;DHT22;9271;48.590;8.866;2024-02-23T04:37:37;6.50;99.90
18291;DHT22;9271;48.590;8.866;2024-02-23T04:40:07;6.60;99.90
18291;DHT22;9271;48.590;8.866;2024-02-23T04:42:34;6.70;99.90
18291;DHT22;9271;48.590;8.866;2024-02-23T04:45:00;6.90;99.90
18291;DHT22;9271;48.590;8.866;2024-02-23T04:47:27;6.90;99.90
18291;DHT22;9271;48.590;8.866;2024-02-23T04:49:54;6.80;99.90
18291;DHT22;9271;48.590;8.866;2024-02-23T04:52:20;6.70;99.90
18291;DHT22;9271;48.590;8.866;2024-02-23T04:55:07;6.80;99.90
18291;DHT22;9271;48.590;8.866;2024-02-23T04:57:33;6.80;99.90
18291;DHT22;9271;48.590;8.866;2024-02-23T05:00:03;6.80;99.90
18291;DHT22;9271;48.590;8.866;2024-02-23T05:02:30;6.70;99.90
18291;DHT22;9271;48.590;8.866;2024-02-23T05:05:00;6.70;99.90
18291;DHT22;9271;48.590;8.866;2024-02-23T05:07:27;6.70;99.90
18291;DHT22;9271;48.590;8.866;2024-02-23T05:09:53;6.60;99.90
18291;DHT22;9271;48.590;8.866;2024-02-23T05:12:21;6.40;99.90
18291;DHT22;9271;48.590;8.866;2024-02-23T05:14:48;6.50;99.90
18291;DHT22;9271;48.590;8.866;2024-02-23T05:17:15;6.60;99.90
18291;DHT22;9271;48.590;8.866;2024-02-23T05:19:41;6.60;99.90
18291;DHT22;9271;48.590;8.866;2024-02-23T05:22:08;6.40;99.90
18291;DHT22;9271;48.590;8.866;2024-02-23T05:24:35;6.40;99.90
18291;DHT22;9271;48.590;8.866;2024-02-23T05:27:01;6.40;99.90
18291;DHT22;9271;48.590;8.866;2024-02-23T05:29:29;6.30;99.90
18291;DHT22;9271;48.590;8.866;2024-02-23T05:31:57;6.30;99.90
18291;DHT22;9271;48.590;8.866;2024-02-23T05:34:23;6.30;99.90
18291;DHT22;9271;48.590;8.866;2024-02-23T05:36:50;6.20;99.90
18291;DHT22;9271;48.590;8.866;2024-02-23T05:39:17;6.10;99.90
18291;DHT22;9271;48.590;8.866;2024-02-23T05:41:44;6.30;99.90
18291;DHT22;9271;48.590;8.866;2024-02-23T05:44:10;6.30;99.90
18291;DHT22;9271;48.590;8.866;2024-02-23T05:46:40;6.20;99.90
18291;DHT22;9271;48.590;8.866;2024-02-23T05:49:06;6.40;99.90
18291;DHT22;9271;48.590;8.866;2024-02-23T05:51:33;6.30;99.90
18291;DHT22;9271;48.590;8.866;2024-02-23T05:54:00;6.30;99.90
18291;DHT22;9271;48.590;8.866;2024-02-23T05:56:27;6.40;99.90
18291;DHT22;9271;48.590;8.866;2024-02-23T05:58:54;6.50;99.90
18291;DHT22;9271;48.590;8.866;2024-02-23T06:01:20;6.60;99.90
18291;DHT22;9271;48.590;8.866;2024-02-23T06:03:48;6.60;99.90
18291;DHT22;9271;48.590;8.866;2024-02-23T06:06:15;6.80;99.90
18291;DHT22;9271;48.590;8.866;2024-02-23T06:08:42;6.60;99.90
18291;DHT22;9271;48.590;8.866;2024-02-23T06:11:09;6.40;99.90
18291;DHT22;9271;48.590;8.866;2024-02-23T06:13:36;6.40;99.90
18291;DHT22;9271;48.590;8.866;2024-02-23T06:16:03;6.60;99.90
18291;DHT22;9271;48.590;8.866;2024-02-23T06:18:30;6.50;99.90
18291;DHT22;9271;48.590;8.866;2024-02-23T06:20:57;6.60;99.90
18291;DHT22;9271;48.590;8.866;2024-02-23T06:23:23;6.70;99.90
18291;DHT22;9271;48.590;8.866;2024-02-23T06:25:50;6.60;99.90
18291;DHT22;9271;48.590;8.866;2024-02-23T06:28:17;6.60;99.90
18291;DHT22;9271;48.590;8.866;2024-02-23T06:30:43;6.50;99.90
18291;DHT22;9271;48.590;8.866;2024-02-23T06:33:10;6.40;99.90
18291;DHT22;9271;48.590;8.866;2024-02-23T06:35:37;6.40;99.90
18291;DHT22;9271;48.590;8.866;2024-02-23T06:38:05;6.20;99.90
18291;DHT22;9271;48.590;8.866;2024-02-23T06:40:32;6.20;99.90
18291;DHT22;9271;48.590;8.866;2024-02-23T06:42:58;6.30;99.90
18291;DHT22;9271;48.590;8.866;2024-02-23T06:45:25;6.20;99.90
18291;DHT22;9271;48.590;8.866;2024-02-23T06:47:52;6.30;99.90
18291;DHT22;9271;48.590;8.866;2024-02-23T06:50:19;6.30;99.90
18291;DHT22;9271;48.590;8.866;2024-02-23T06:52:45;6.30;99.90
18291;DHT22;9271;48.590;8.866;2024-02-23T06:55:15;6.40;99.90
18291;DHT22;9271;48.590;8.866;2024-02-23T06:57:42;6.50;99.90
18291;DHT22;9271;48.590;8.866;2024-02-23T07:00:10;6.40;99.90
18291;DHT22;9271;48.590;8.866;2024-02-23T07:02:37;6.40;99.90
18291;DHT22;9271;48.590;8.866;2024-02-23T07:05:04;6.40;99.90
18291;DHT22;9271;48.590;8.866;2024-02-23T07:07:32;6.50;99.90
18291;DHT22;9271;48.590;8.866;2024-02-23T07:09:58;6.60;99.90
18291;DHT22;9271;48.590;8.866;2024-02-23T07:12:26;6.60;99.90
18291;DHT22;9271;48.590;8.866;2024-02-23T07:14:54;6.70;99.90
18291;DHT22;9271;48.590;8.866;2024-02-23T07:17:21;6.70;99.90
18291;DHT22;9271;48.590;8.866;2024-02-23T07:19:47;6.90;99.90
18291;DHT22;9271;48.590;8.866;2024-02-23T07:22:16;6.90;99.90
18291;DHT22;9271;48.590;8.866;2024-02-23T07:24:43;6.90;99.90
18291;DHT22;9271;48.590;8.866;2024-02-23T07:27:10;6.60;99.90
18291;DHT22;9271;48.590;8.866;2024-02-23T07:29:38;6.00;99.90
18291;DHT22;9271;48.590;8.866;2024-02-23T07:32:05;6.00;99.90
18291;DHT22;9271;48.590;8.866;2024-02-23T07:34:32;6.20;99.90
18291;DHT22;9271;48.590;8.866;2024-02-23T07:36:58;6.40;99.90
18291;DHT22;9271;48.590;8.866;2024-02-23T07:39:25;6.50;99.90
18291;DHT22;9271;48.590;8.866;2024-02-23T07:41:52;6.30;99.90
18291;DHT22;9271;48.590;8.866;2024-02-23T07:44:19;6.20;99.90
18291;DHT22;9271;48.590;8.866;2024-02-23T07:46:47;6.70;99.90
18291;DHT22;9271;48.590;8.866;2024-02-23T07:49:14;6.90;99.90
18291;DHT22;9271;48.590;8.866;2024-02-23T07:51:40;7.20;99.90
18291;DHT22;9271;48.590;8.866;2024-02-23T07:54:07;7.00;99.90
18291;DHT22;9271;48.590;8.866;2024-02-23T07:56:33;6.90;99.90
18291;DHT22;9271;48.590;8.866;2024-02-23T07:59:00;6.40;99.90
18291;DHT22;9271;48.590;8.866;2024-02-23T08:01:28;6.10;99.90
18291;DHT22;9271;48.590;8.866;2024-02-23T08:03:57;5.90;99.90
18291;DHT22;9271;48.590;8.866;2024-02-23T08:06:24;5.80;99.90
18291;DHT22;9271;48.590;8.866;2024-02-23T08:08:51;6.10;99.90
18291;DHT22;9271;48.590;8.866;2024-02-23T08:11:19;6.10;99.90
18291;DHT22;9271;48.590;8.866;2024-02-23T08:13:45;6.00;99.90
18291;DHT22;9271;48.590;8.866;2024-02-23T08:16:12;6.30;99.90
18291;DHT22;9271;48.590;8.866;2024-02-23T08:18:38;6.50;99.90
18291;DHT22;9271;48.590;8.866;2024-02-23T08:21:06;7.20;99.90
18291;DHT22;9271;48.590;8.866;2024-02-23T08:23:33;7.60;99.90
18291;DHT22;9271;48.590;8.866;2024-02-23T08:26:00;7.60;99.90
18291;DHT22;9271;48.590;8.866;2024-02-23T08:28:27;7.40;99.90
18291;DHT22;9271;48.590;8.866;2024-02-23T08:30:53;7.20;99.90
18291;DHT22;9271;48.590;8.866;2024-02-23T08:33:20;6.90;99.90
18291;DHT22;9271;48.590;8.866;2024-02-23T08:35:47;6.70;99.90
18291;DHT22;9271;48.590;8.866;2024-02-23T08:38:15;6.90;99.90
18291;DHT22;9271;48.590;8.866;2024-02-23T08:40:42;6.90;99.90
18291;DHT22;9271;48.590;8.866;2024-02-23T08:43:10;7.20;99.90
18291;DHT22;9271;48.590;8.866;2024-02-23T08:45:37;8.00;99.90
18291;DHT22;9271;48.590;8.866;2024-02-23T08:48:04;8.10;99.90
18291;DHT22;9271;48.590;8.866;2024-02-23T08:50:32;7.70;99.90
18291;DHT22;9271;48.590;8.866;2024-02-23T08:52:59;7.40;99.90
18291;DHT22;9271;48.590;8.866;2024-02-23T08:55:27;7.70;99.90
18291;DHT22;9271;48.590;8.866;2024-02-23T08:57:54;8.20;99.90
18291;DHT22;9271;48.590;8.866;2024-02-23T09:00:20;8.70;99.90
18291;DHT22;9271;48.590;8.866;2024-02-23T09:02:48;9.00;99.90
18291;DHT22;9271;48.590;8.866;2024-02-23T09:05:15;9.70;99.90
18291;DHT22;9271;48.590;8.866;2024-02-23T09:07:42;10.30;98.50
18291;DHT22;9271;48.590;8.866;2024-02-23T09:10:09;10.60;97.90
18291;DHT22;9271;48.590;8.866;2024-02-23T09:12:38;12.20;96.80
18291;DHT22;9271;48.590;8.866;2024-02-23T09:15:05;13.20;94.00
18291;DHT22;9271;48.590;8.866;2024-02-23T09:17:33;12.70;94.20
18291;DHT22;9271;48.590;8.866;2024-02-23T09:19:59;12.60;93.90
18291;DHT22;9271;48.590;8.866;2024-02-23T09:22:26;12.20;94.10
18291;DHT22;9271;48.590;8.866;2024-02-23T09:24:53;12.60;94.20
18291;DHT22;9271;48.590;8.866;2024-02-23T09:27:21;12.40;92.80
18291;DHT22;9271;48.590;8.866;2024-02-23T09:29:49;12.20;93.30
18291;DHT22;9271;48.590;8.866;2024-02-23T09:32:16;11.40;93.80
18291;DHT22;9271;48.590;8.866;2024-02-23T09:34:43;10.70;94.90
18291;DHT22;9271;48.590;8.866;2024-02-23T09:37:09;10.10;95.70
18291;DHT22;9271;48.590;8.866;2024-02-23T09:39:36;9.40;97.10
18291;DHT22;9271;48.590;8.866;2024-02-23T09:42:06;8.60;98.50
18291;DHT22;9271;48.590;8.866;2024-02-23T09:44:36;8.40;99.90
18291;DHT22;9271;48.590;8.866;2024-02-23T09:47:05;8.40;99.90
18291;DHT22;9271;48.590;8.866;2024-02-23T09:49:37;8.40;99.90
18291;DHT22;9271;48.590;8.866;2024-02-23T09:52:05;8.30;99.90
18291;DHT22;9271;48.590;8.866;2024-02-23T09:54:33;7.80;99.90
18291;DHT22;9271;48.590;8.866;2024-02-23T09:57:00;7.80;99.90
18291;DHT22;9271;48.590;8.866;2024-02-23T09:59:29;8.00;99.90
18291;DHT22;9271;48.590;8.866;2024-02-23T10:01:56;7.90;99.90
18291;DHT22;9271;48.590;8.866;2024-02-23T10:04:26;8.00;99.90
18291;DHT22;9271;48.590;8.866;2024-02-23T10:06:54;7.90;99.90
18291;DHT22;9271;48.590;8.866;2024-02-23T10:09:21;8.20;99.90
18291;DHT22;9271;48.590;8.866;2024-02-23T10:11:52;8.80;99.70
18291;DHT22;9271;48.590;8.866;2024-02-23T10:14:19;9.00;98.60
18291;DHT22;9271;48.590;8.866;2024-02-23T10:16:45;8.70;98.70
18291;DHT22;9271;48.590;8.866;2024-02-23T10:19:12;8.60;99.90
18291;DHT22;9271;48.590;8.866;2024-02-23T10:21:40;8.50;99.10
18291;DHT22;9271;48.590;8.866;2024-02-23T10:24:07;8.40;99.50
18291;DHT22;9271;48.590;8.866;2024-02-23T10:26:33;8.50;99.10
18291;DHT22;9271;48.590;8.866;2024-02-23T10:29:00;8.30;98.90
18291;DHT22;9271;48.590;8.866;2024-02-23T10:31:27;8.50;99.20
18291;DHT22;9271;48.590;8.866;2024-02-23T10:33:54;8.60;98.70
18291;DHT22;9271;48.590;8.866;2024-02-23T10:36:24;8.70;99.20
18291;DHT22;9271;48.590;8.866;2024-02-23T10:38:57;9.30;98.90
18291;DHT22;9271;48.590;8.866;2024-02-23T10:41:26;10.00;96.90
18291;DHT22;9271;48.590;8.866;2024-02-23T10:43:55;11.00;95.70
18291;DHT22;9271;48.590;8.866;2024-02-23T10:46:25;12.10;94.60
18291;DHT22;9271;48.590;8.866;2024-02-23T10:48:54;13.30;92.50
18291;DHT22;9271;48.590;8.866;2024-02-23T10:51:22;13.10;91.50
18291;DHT22;9271;48.590;8.866;2024-02-23T10:53:50;12.30;92.30
18291;DHT22;9271;48.590;8.866;2024-02-23T10:56:20;11.50;93.20
18291;DHT22;9271;48.590;8.866;2024-02-23T10:58:47;11.20;94.00
18291;DHT22;9271;48.590;8.866;2024-02-23T11:01:14;11.00;93.70
18291;DHT22;9271;48.590;8.866;2024-02-23T11:03:43;10.80;94.20
18291;DHT22;9271;48.590;8.866;2024-02-23T11:06:13;11.00;94.60
18291;DHT22;9271;48.590;8.866;2024-02-23T11:08:42;10.90;94.00
18291;DHT22;9271;48.590;8.866;2024-02-23T11:11:09;11.00;93.90
18291;DHT22;9271;48.590;8.866;2024-02-23T11:13:38;10.40;94.40
18291;DHT22;9271;48.590;8.866;2024-02-23T11:16:06;10.30;94.40
18291;DHT22;9271;48.590;8.866;2024-02-23T11:18:34;9.80;95.50
18291;DHT22;9271;48.590;8.866;2024-02-23T11:21:02;9.60;96.30
18291;DHT22;9271;48.590;8.866;2024-02-23T11:23:39;9.70;96.20
18291;DHT22;9271;48.590;8.866;2024-02-23T11:26:06;9.90;96.10
18291;DHT22;9271;48.590;8.866;2024-02-23T11:28:42;9.70;96.10
18291;DHT22;9271;48.590;8.866;2024-02-23T11:31:13;9.80;96.70
18291;DHT22;9271;48.590;8.866;2024-02-23T11:33:40;10.20;95.60
18291;DHT22;9271;48.590;8.866;2024-02-23T11:36:22;10.50;95.80
18291;DHT22;9271;48.590;8.866;2024-02-23T11:38:52;10.70;95.30
18291;DHT22;9271;48.590;8.866;2024-02-23T11:41:20;11.00;95.40
18291;DHT22;9271;48.590;8.866;2024-02-23T11:43:49;11.10;94.70
18291;DHT22;9271;48.590;8.866;2024-02-23T11:46:15;10.80;94.40
18291;DHT22;9271;48.590;8.866;2024-02-23T11:48:42;10.80;95.00
18291;DHT22;9271;48.590;8.866;2024-02-23T11:51:09;10.30;94.80
18291;DHT22;9271;48.590;8.866;2024-02-23T11:53:36;9.70;96.50
18291;DHT22;9271;48.590;8.866;2024-02-23T11:56:04;9.70;97.20
18291;DHT22;9271;48.590;8.866;2024-02-23T11:58:31;9.70;95.70
18291;DHT22;9271;48.590;8.866;2024-02-23T12:01:00;9.70;96.20
18291;DHT22;9271;48.590;8.866;2024-02-23T12:03:28;10.20;95.00
18291;DHT22;9271;48.590;8.866;2024-02-23T12:05:56;10.60;94.80
18291;DHT22;9271;48.590;8.866;2024-02-23T12:08:23;11.20;93.80
18291;DHT22;9271;48.590;8.866;2024-02-23T12:10:51;11.60;93.90
18291;DHT22;9271;48.590;8.866;2024-02-23T12:13:18;11.70;94.00
18291;DHT22;9271;48.590;8.866;2024-02-23T12:15:45;11.70;92.90
18291;DHT22;9271;48.590;8.866;2024-02-23T12:18:13;11.80;93.00
18291;DHT22;9271;48.590;8.866;2024-02-23T12:20:40;12.10;92.80
18291;DHT22;9271;48.590;8.866;2024-02-23T12:23:07;12.20;92.40
18291;DHT22;9271;48.590;8.866;2024-02-23T12:25:35;11.40;92.20
18291;DHT22;9271;48.590;8.866;2024-02-23T12:28:02;10.90;93.10
18291;DHT22;9271;48.590;8.866;2024-02-23T12:30:29;10.70;94.00
18291;DHT22;9271;48.590;8.866;2024-02-23T12:33:03;10.50;95.00
18291;DHT22;9271;48.590;8.866;2024-02-23T12:35:31;10.50;94.90
18291;DHT22;9271;48.590;8.866;2024-02-23T12:37:58;10.60;94.70
18291;DHT22;9271;48.590;8.866;2024-02-23T12:40:24;10.60;93.80
18291;DHT22;9271;48.590;8.866;2024-02-23T12:42:51;10.20;94.70
18291;DHT22;9271;48.590;8.866;2024-02-23T12:45:18;10.00;95.40
18291;DHT22;9271;48.590;8.866;2024-02-23T12:47:45;9.80;96.00
18291;DHT22;9271;48.590;8.866;2024-02-23T12:50:12;9.50;96.30
18291;DHT22;9271;48.590;8.866;2024-02-23T12:52:39;9.50;96.90
18291;DHT22;9271;48.590;8.866;2024-02-23T12:55:07;9.60;97.00
18291;DHT22;9271;48.590;8.866;2024-02-23T12:57:34;9.50;96.60
18291;DHT22;9271;48.590;8.866;2024-02-23T13:00:01;9.60;96.30
18291;DHT22;9271;48.590;8.866;2024-02-23T13:02:28;9.70;97.00
18291;DHT22;9271;48.590;8.866;2024-02-23T13:04:54;9.80;96.50
18291;DHT22;9271;48.590;8.866;2024-02-23T13:07:21;10.00;96.20
18291;DHT22;9271;48.590;8.866;2024-02-23T13:09:49;9.90;96.40
18291;DHT22;9271;48.590;8.866;2024-02-23T13:12:16;10.00;96.20
18291;DHT22;9271;48.590;8.866;2024-02-23T13:14:43;10.00;96.20
18291;DHT22;9271;48.590;8.866;2024-02-23T13:17:10;10.00;96.20
18291;DHT22;9271;48.590;8.866;2024-02-23T13:19:36;10.30;96.90
18291;DHT22;9271;48.590;8.866;2024-02-23T13:22:03;10.30;96.10
18291;DHT22;9271;48.590;8.866;2024-02-23T13:24:29;10.30;95.50
18291;DHT22;9271;48.590;8.866;2024-02-23T13:26:57;10.40;96.10
18291;DHT22;9271;48.590;8.866;2024-02-23T13:29:24;10.50;95.50
18291;DHT22;9271;48.590;8.866;2024-02-23T13:31:51;10.50;94.90
18291;DHT22;9271;48.590;8.866;2024-02-23T13:34:17;10.80;94.90
18291;DHT22;9271;48.590;8.866;2024-02-23T13:36:44;11.10;94.40
18291;DHT22;9271;48.590;8.866;2024-02-23T13:39:11;11.10;94.00
18291;DHT22;9271;48.590;8.866;2024-02-23T13:41:38;11.10;94.50
18291;DHT22;9271;48.590;8.866;2024-02-23T13:44:06;10.90;94.30
18291;DHT22;9271;48.590;8.866;2024-02-23T13:46:36;10.90;95.30
18291;DHT22;9271;48.590;8.866;2024-02-23T13:49:05;11.10;95.50
18291;DHT22;9271;48.590;8.866;2024-02-23T13:51:32;10.90;94.80
18291;DHT22;9271;48.590;8.866;2024-02-23T13:53:59;11.00;95.60
18291;DHT22;9271;48.590;8.866;2024-02-23T13:56:26;11.10;94.90
18291;DHT22;9271;48.590;8.866;2024-02-23T13:58:53;11.20;94.50
18291;DHT22;9271;48.590;8.866;2024-02-23T14:01:21;11.40;93.90
18291;DHT22;9271;48.590;8.866;2024-02-23T14:03:48;11.60;93.10
18291;DHT22;9271;48.590;8.866;2024-02-23T14:06:14;11.30;93.90
18291;DHT22;9271;48.590;8.866;2024-02-23T14:08:41;11.30;94.30
18291;DHT22;9271;48.590;8.866;2024-02-23T14:11:09;11.30;93.90
18291;DHT22;9271;48.590;8.866;2024-02-23T14:13:36;11.20;93.50
18291;DHT22;9271;48.590;8.866;2024-02-23T14:16:03;11.00;94.00
18291;DHT22;9271;48.590;8.866;2024-02-23T14:18:32;10.80;94.70
18291;DHT22;9271;48.590;8.866;2024-02-23T14:21:03;10.90;94.50
18291;DHT22;9271;48.590;8.866;2024-02-23T14:23:29;10.90;93.90
18291;DHT22;9271;48.590;8.866;2024-02-23T14:25:55;10.60;94.20
18291;DHT22;9271;48.590;8.866;2024-02-23T14:28:22;10.50;94.40
18291;DHT22;9271;48.590;8.866;2024-02-23T14:30:48;10.50;94.90
18291;DHT22;9271;48.590;8.866;2024-02-23T14:33:15;10.50;95.30
18291;DHT22;9271;48.590;8.866;2024-02-23T14:35:43;10.20;94.90
18291;DHT22;9271;48.590;8.866;2024-02-23T14:38:10;10.10;95.50
18291;DHT22;9271;48.590;8.866;2024-02-23T14:40:36;10.00;95.50
18291;DHT22;9271;48.590;8.866;2024-02-23T14:43:05;10.10;95.80
18291;DHT22;9271;48.590;8.866;2024-02-23T14:45:31;10.10;95.40
18291;DHT22;9271;48.590;8.866;2024-02-23T14:47:58;9.90;96.10
18291;DHT22;9271;48.590;8.866;2024-02-23T14:50:25;9.90;96.40
18291;DHT22;9271;48.590;8.866;2024-02-23T14:52:53;10.00;96.10
18291;DHT22;9271;48.590;8.866;2024-02-23T14:55:20;10.20;95.90
18291;DHT22;9271;48.590;8.866;2024-02-23T14:57:47;10.20;95.90
18291;DHT22;9271;48.590;8.866;2024-02-23T15:00:14;10.30;96.70
18291;DHT22;9271;48.590;8.866;2024-02-23T15:02:41;10.50;96.10
18291;DHT22;9271;48.590;8.866;2024-02-23T15:05:08;10.50;96.00
18291;DHT22;9271;48.590;8.866;2024-02-23T15:07:35;10.40;96.60
18291;DHT22;9271;48.590;8.866;2024-02-23T15:10:04;10.30;96.70
18291;DHT22;9271;48.590;8.866;2024-02-23T15:12:33;10.30;97.20
18291;DHT22;9271;48.590;8.866;2024-02-23T15:15:00;10.30;97.50
18291;DHT22;9271;48.590;8.866;2024-02-23T15:17:27;10.20;98.20
18291;DHT22;9271;48.590;8.866;2024-02-23T15:19:54;10.30;99.70
18291;DHT22;9271;48.590;8.866;2024-02-23T15:22:20;10.60;99.70
18291;DHT22;9271;48.590;8.866;2024-02-23T15:24:47;10.90;99.90
18291;DHT22;9271;48.590;8.866;2024-02-23T15:27:16;11.00;99.90
18291;DHT22;9271;48.590;8.866;2024-02-23T15:29:43;11.00;97.80
18291;DHT22;9271;48.590;8.866;2024-02-23T15:32:09;10.90;97.20
18291;DHT22;9271;48.590;8.866;2024-02-23T15:34:36;10.30;97.40
18291;DHT22;9271;48.590;8.866;2024-02-23T15:37:03;10.20;95.80
18291;DHT22;9271;48.590;8.866;2024-02-23T15:39:30;9.60;97.70
18291;DHT22;9271;48.590;8.866;2024-02-23T15:41:57;9.50;98.40
18291;DHT22;9271;48.590;8.866;2024-02-23T15:44:24;10.00;98.30
18291;DHT22;9271;48.590;8.866;2024-02-23T15:46:51;9.50;97.30
18291;DHT22;9271;48.590;8.866;2024-02-23T15:49:18;9.10;98.70
18291;DHT22;9271;48.590;8.866;2024-02-23T15:51:44;9.30;98.70
18291;DHT22;9271;48.590;8.866;2024-02-23T15:54:11;10.00;97.40
18291;DHT22;9271;48.590;8.866;2024-02-23T15:56:38;10.40;96.90